sensor_id;sensor_type;location;lat;lon;timestamp;temperature;humidity
27697;DHT22;15105;56.514;21.002;2022-07-01T00:00:18;20.70;99.90
27697;DHT22;15105;56.514;21.002;2022-07-01T00:02:45;20.70;99.90
27697;DHT22;15105;56.514;21.002;2022-07-01T00:05:12;20.70;99.90
27697;DHT22;15105;56.514;21.002;2022-07-01T00:07:39;20.50;99.90
27697;DHT22;15105;56.514;21.002;2022-07-01T00:10:06;20.30;99.90
27697;DHT22;15105;56.514;21.002;2022-07-01T00:12:34;19.90;99.90
27697;DHT22;15105;56.514;21.002;2022-07-01T00:15:01;19.70;99.90
27697;DHT22;15105;56.514;21.002;2022-07-01T00:17:28;19.50;99.90
27697;DHT22;15105;56.514;21.002;2022-07-01T00:19:55;19.40;99.90
27697;DHT22;15105;56.514;21.002;2022-07-01T00:22:22;19.30;99.90
27697;DHT22;15105;56.514;21.002;2022-07-01T00:24:49;19.30;99.90
27697;DHT22;15105;56.514;21.002;2022-07-01T00:27:16;19.30;99.90
27697;DHT22;15105;56.514;21.002;2022-07-01T00:29:43;19.30;99.90
27697;DHT22;15105;56.514;21.002;2022-07-01T00:32:11;19.40;99.90
27697;DHT22;15105;56.514;21.002;2022-07-01T00:34:38;19.30;99.90
27697;DHT22;15105;56.514;21.002;2022-07-01T00:37:05;19.40;99.90
27697;DHT22;15105;56.514;21.002;2022-07-01T00:39:32;19.40;99.90
27697;DHT22;15105;56.514;21.002;2022-07-01T00:42:02;19.50;99.90
27697;DHT22;15105;56.514;21.002;2022-07-01T00:44:30;19.50;99.90
27697;DHT22;15105;56.514;21.002;2022-07-01T00:47:00;19.60;99.90
27697;DHT22;15105;56.514;21.002;2022-07-01T00:49:29;19.60;99.90
27697;DHT22;15105;56.514;21.002;2022-07-01T00:51:56;19.60;99.90
27697;DHT22;15105;56.514;21.002;2022-07-01T00:54:25;19.60;99.90
27697;DHT22;15105;56.514;21.002;2022-07-01T00:56:53;19.50;99.90
27697;DHT22;15105;56.514;21.002;2022-07-01T00:59:21;19.60;99.90
27697;DHT22;15105;56.514;21.002;2022-07-01T01:01:48;19.50;99.90
27697;DHT22;15105;56.514;21.002;2022-07-01T01:04:15;19.70;99.90
27697;DHT22;15105;56.514;21.002;2022-07-01T01:06:42;19.70;99.90
27697;DHT22;15105;56.514;21.002;2022-07-01T01:09:09;19.80;99.90
27697;DHT22;15105;56.514;21.002;2022-07-01T01:11:37;19.70;99.90
27697;DHT22;15105;56.514;21.002;2022-07-01T01:14:04;19.80;99.90
27697;DHT22;15105;56.514;21.002;2022-07-01T01:16:31;19.80;99.90
27697;DHT22;15105;56.514;21.002;2022-07-01T01:19:07;19.80;99.90
27697;DHT22;15105;56.514;21.002;2022-07-01T01:21:34;19.80;99.90
27697;DHT22;15105;56.514;21.002;2022-07-01T01:24:01;19.80;99.90
27697;DHT22;15105;56.514;21.002;2022-07-01T01:26:29;19.80;99.90
27697;DHT22;15105;56.514;21.002;2022-07-01T01:28:58;19.70;99.90
27697;DHT22;15105;56.514;21.002;2022-07-01T01:31:29;19.70;99.90
27697;DHT22;15105;56.514;21.002;2022-07-01T01:33:57;19.60;99.90
27697;DHT22;15105;56.514;21.002;2022-07-01T01:36:24;19.60;99.90
27697;DHT22;15105;56.514;21.002;2022-07-01T01:38:51;19.50;99.90
27697;DHT22;15105;56.514;21.002;2022-07-01T01:41:18;19.60;99.90
27697;DHT22;15105;56.514;21.002;2022-07-01T01:43:45;19.60;99.90
27697;DHT22;15105;56.514;21.002;2022-07-01T01:46:13;19.60;99.90
27697;DHT22;15105;56.514;21.002;2022-07-01T01:48:41;19.60;99.90
27697;DHT22;15105;56.514;21.002;2022-07-01T01:51:07;19.70;99.90
27697;DHT22;15105;56.514;21.002;2022-07-01T01:53:35;19.60;99.90
27697;DHT22;15105;56.514;21.002;2022-07-01T01:56:02;19.60;99.90
27697;DHT22;15105;56.514;21.002;2022-07-01T01:58:29;19.60;99.90
27697;DHT22;15105;56.514;21.002;2022-07-01T02:00:56;19.70;99.90
27697;DHT22;15105;56.514;21.002;2022-07-01T02:03:23;19.60;99.90
27697;DHT22;15105;56.514;21.002;2022-07-01T02:05:50;19.60;99.90
27697;DHT22;15105;56.514;21.002;2022-07-01T02:08:17;19.70;99.90
27697;DHT22;15105;56.514;21.002;2022-07-01T02:10:44;19.60;99.90
27697;DHT22;15105;56.514;21.002;2022-07-01T02:13:11;19.60;99.90
27697;DHT22;15105;56.514;21.002;2022-07-01T02:15:38;19.50;99.90
27697;DHT22;15105;56.514;21.002;2022-07-01T02:18:06;19.50;99.90
27697;DHT22;15105;56.514;21.002;2022-07-01T02:20:33;19.50;99.90
27697;DHT22;15105;56.514;21.002;2022-07-01T02:23:01;19.50;99.90
27697;DHT22;15105;56.514;21.002;2022-07-01T02:25:28;19.40;99.90
27697;DHT22;15105;56.514;21.002;2022-07-01T02:27:56;19.30;99.90
27697;DHT22;15105;56.514;21.002;2022-07-01T02:30:26;19.30;99.90
27697;DHT22;15105;56.514;21.002;2022-07-01T02:32:53;19.30;99.90
27697;DHT22;15105;56.514;21.002;2022-07-01T02:35:20;19.20;99.90
27697;DHT22;15105;56.514;21.002;2022-07-01T02:37:48;19.30;99.90
27697;DHT22;15105;56.514;21.002;2022-07-01T02:40:15;19.30;99.90
27697;DHT22;15105;56.514;21.002;2022-07-01T02:42:42;19.30;99.90
27697;DHT22;15105;56.514;21.002;2022-07-01T02:45:09;19.30;99.90
27697;DHT22;15105;56.514;21.002;2022-07-01T02:47:40;19.30;99.90
27697;DHT22;15105;56.514;21.002;2022-07-01T02:50:09;19.40;99.90
27697;DHT22;15105;56.514;21.002;2022-07-01T02:52:38;19.40;99.90
27697;DHT22;15105;56.514;21.002;2022-07-01T02:55:07;19.40;99.90
27697;DHT22;15105;56.514;21.002;2022-07-01T02:57:36;19.50;99.90
27697;DHT22;15105;56.514;21.002;2022-07-01T03:00:04;19.50;99.90
27697;DHT22;15105;56.514;21.002;2022-07-01T03:02:35;19.50;99.90
27697;DHT22;15105;56.514;21.002;2022-07-01T03:05:03;19.60;99.90
27697;DHT22;15105;56.514;21.002;2022-07-01T03:07:30;19.60;99.90
27697;DHT22;15105;56.514;21.002;2022-07-01T03:09:57;19.60;99.90
27697;DHT22;15105;56.514;21.002;2022-07-01T03:12:24;19.70;99.90
27697;DHT22;15105;56.514;21.002;2022-07-01T03:14:52;19.80;99.90
27697;DHT22;15105;56.514;21.002;2022-07-01T03:17:20;19.80;99.90
27697;DHT22;15105;56.514;21.002;2022-07-01T03:19:47;19.90;99.90
27697;DHT22;15105;56.514;21.002;2022-07-01T03:22:15;19.90;99.90
27697;DHT22;15105;56.514;21.002;2022-07-01T03:24:41;20.00;99.90
27697;DHT22;15105;56.514;21.002;2022-07-01T03:27:09;20.00;99.90
27697;DHT22;15105;56.514;21.002;2022-07-01T03:29:36;20.10;99.90
27697;DHT22;15105;56.514;21.002;2022-07-01T03:32:03;20.20;99.90
27697;DHT22;15105;56.514;21.002;2022-07-01T03:34:30;20.20;99.90
27697;DHT22;15105;56.514;21.002;2022-07-01T03:36:57;20.20;99.90
27697;DHT22;15105;56.514;21.002;2022-07-01T03:39:24;20.30;99.90
27697;DHT22;15105;56.514;21.002;2022-07-01T03:41:51;20.40;99.90
27697;DHT22;15105;56.514;21.002;2022-07-01T03:44:18;20.40;99.90
27697;DHT22;15105;56.514;21.002;2022-07-01T03:46:45;20.50;99.90
27697;DHT22;15105;56.514;21.002;2022-07-01T03:49:12;20.50;99.90
27697;DHT22;15105;56.514;21.002;2022-07-01T03:51:39;20.60;99.90
27697;DHT22;15105;56.514;21.002;2022-07-01T03:54:06;20.60;99.90
27697;DHT22;15105;56.514;21.002;2022-07-01T03:56:52;20.70;99.90
27697;DHT22;15105;56.514;21.002;2022-07-01T03:59:19;20.80;99.90
27697;DHT22;15105;56.514;21.002;2022-07-01T04:01:45;20.80;99.90
27697;DHT22;15105;56.514;21.002;2022-07-01T04:04:12;20.80;99.90
27697;DHT22;15105;56.514;21.002;2022-07-01T04:06:40;20.90;99.90
27697;DHT22;15105;56.514;21.002;2022-07-01T04:09:07;21.10;99.90
27697;DHT22;15105;56.514;21.002;2022-07-01T04:11:34;21.60;99.90
27697;DHT22;15105;56.514;21.002;2022-07-01T04:14:01;22.10;99.90
27697;DHT22;15105;56.514;21.002;2022-07-01T04:16:30;22.50;99.90
27697;DHT22;15105;56.514;21.002;2022-07-01T04:18:58;22.80;99.90
27697;DHT22;15105;56.514;21.002;2022-07-01T04:21:25;23.00;99.90
27697;DHT22;15105;56.514;21.002;2022-07-01T04:24:10;22.90;99.90
27697;DHT22;15105;56.514;21.002;2022-07-01T04:26:41;22.80;99.90
27697;DHT22;15105;56.514;21.002;2022-07-01T04:29:08;23.00;99.90
27697;DHT22;15105;56.514;21.002;2022-07-01T04:31:37;23.40;99.90
27697;DHT22;15105;56.514;21.002;2022-07-01T04:34:06;23.60;99.90
27697;DHT22;15105;56.514;21.002;2022-07-01T04:36:33;23.30;99.90
27697;DHT22;15105;56.514;21.002;2022-07-01T04:39:01;23.00;99.90
27697;DHT22;15105;56.514;21.002;2022-07-01T04:41:28;22.80;99.90
27697;DHT22;15105;56.514;21.002;2022-07-01T04:44:14;22.50;99.90
27697;DHT22;15105;56.514;21.002;2022-07-01T04:46:41;22.40;99.90
27697;DHT22;15105;56.514;21.002;2022-07-01T04:49:08;22.30;99.90
27697;DHT22;15105;56.514;21.002;2022-07-01T04:51:36;22.30;99.90
27697;DHT22;15105;56.514;21.002;2022-07-01T04:54:07;22.30;99.90
27697;DHT22;15105;56.514;21.002;2022-07-01T04:56:36;22.20;99.90
27697;DHT22;15105;56.514;21.002;2022-07-01T04:59:10;22.10;99.90
27697;DHT22;15105;56.514;21.002;2022-07-01T05:01:37;22.20;99.90
27697;DHT22;15105;56.514;21.002;2022-07-01T05:04:04;22.50;99.90
27697;DHT22;15105;56.514;21.002;2022-07-01T05:06:31;22.90;99.90
27697;DHT22;15105;56.514;21.002;2022-07-01T05:09:01;22.90;99.90
27697;DHT22;15105;56.514;21.002;2022-07-01T05:11:28;22.80;99.90
27697;DHT22;15105;56.514;21.002;2022-07-01T05:13:55;22.60;99.90
27697;DHT22;15105;56.514;21.002;2022-07-01T05:16:22;22.40;99.90
27697;DHT22;15105;56.514;21.002;2022-07-01T05:18:49;22.20;99.90
27697;DHT22;15105;56.514;21.002;2022-07-01T05:21:34;22.00;99.90
27697;DHT22;15105;56.514;21.002;2022-07-01T05:24:19;21.90;99.90
27697;DHT22;15105;56.514;21.002;2022-07-01T05:26:46;21.80;99.90
27697;DHT22;15105;56.514;21.002;2022-07-01T05:29:13;21.80;99.90
27697;DHT22;15105;56.514;21.002;2022-07-01T05:31:41;21.70;99.90
27697;DHT22;15105;56.514;21.002;2022-07-01T11:30:17;30.00;99.90
27697;DHT22;15105;56.514;21.002;2022-07-01T11:32:55;30.00;99.90
27697;DHT22;15105;56.514;21.002;2022-07-01T11:35:28;30.10;99.90
27697;DHT22;15105;56.514;21.002;2022-07-01T11:38:16;30.20;99.90
27697;DHT22;15105;56.514;21.002;2022-07-01T11:41:23;30.40;99.90
27697;DHT22;15105;56.514;21.002;2022-07-01T11:43:52;30.50;99.90
27697;DHT22;15105;56.514;21.002;2022-07-01T11:46:20;30.50;99.90
27697;DHT22;15105;56.514;21.002;2022-07-01T11:48:49;30.20;99.90
27697;DHT22;15105;56.514;21.002;2022-07-01T11:51:23;30.10;99.90
27697;DHT22;15105;56.514;21.002;2022-07-01T11:53:52;30.10;99.90
27697;DHT22;15105;56.514;21.002;2022-07-01T11:56:34;30.10;99.90
27697;DHT22;15105;56.514;21.002;2022-07-01T11:59:03;30.20;99.90
27697;DHT22;15105;56.514;21.002;2022-07-01T12:01:33;30.20;99.90
27697;DHT22;15105;56.514;21.002;2022-07-01T12:04:03;30.20;99.90
27697;DHT22;15105;56.514;21.002;2022-07-01T12:06:31;30.10;99.90
27697;DHT22;15105;56.514;21.002;2022-07-01T12:09:00;30.20;99.90
27697;DHT22;15105;56.514;21.002;2022-07-01T12:11:28;30.10;99.90
27697;DHT22;15105;56.514;21.002;2022-07-01T12:13:59;30.00;99.90
27697;DHT22;15105;56.514;21.002;2022-07-01T12:16:26;29.90;99.90
27697;DHT22;15105;56.514;21.002;2022-07-01T12:19:01;29.90;99.90
27697;DHT22;15105;56.514;21.002;2022-07-01T12:21:30;29.90;99.90
27697;DHT22;15105;56.514;21.002;2022-07-01T12:26:33;29.80;99.90
27697;DHT22;15105;56.514;21.002;2022-07-01T12:29:00;29.70;99.90
27697;DHT22;15105;56.514;21.002;2022-07-01T12:31:28;29.90;99.90
27697;DHT22;15105;56.514;21.002;2022-07-01T12:33:55;30.00;99.90
27697;DHT22;15105;56.514;21.002;2022-07-01T12:36:22;30.10;99.90
27697;DHT22;15105;56.514;21.002;2022-07-01T12:39:00;30.20;99.90
27697;DHT22;15105;56.514;21.002;2022-07-01T12:41:32;30.20;99.90
27697;DHT22;15105;56.514;21.002;2022-07-01T12:44:06;30.20;99.90
27697;DHT22;15105;56.514;21.002;2022-07-01T12:46:46;30.00;99.90
27697;DHT22;15105;56.514;21.002;2022-07-01T12:49:24;30.00;99.90
27697;DHT22;15105;56.514;21.002;2022-07-01T12:51:52;30.00;99.90
27697;DHT22;15105;56.514;21.002;2022-07-01T12:54:34;30.10;99.90
27697;DHT22;15105;56.514;21.002;2022-07-01T12:57:02;30.10;99.90
27697;DHT22;15105;56.514;21.002;2022-07-01T12:59:36;29.90;99.90
27697;DHT22;15105;56.514;21.002;2022-07-01T13:02:04;29.80;99.90
27697;DHT22;15105;56.514;21.002;2022-07-01T13:04:31;29.80;99.90
27697;DHT22;15105;56.514;21.002;2022-07-01T13:06:59;29.80;99.90
27697;DHT22;15105;56.514;21.002;2022-07-01T13:09:26;29.90;99.90
27697;DHT22;15105;56.514;21.002;2022-07-01T13:11:53;29.90;99.90
27697;DHT22;15105;56.514;21.002;2022-07-01T13:14:20;29.90;99.90
27697;DHT22;15105;56.514;21.002;2022-07-01T13:16:47;30.00;99.90
27697;DHT22;15105;56.514;21.002;2022-07-01T13:19:14;30.10;99.90
27697;DHT22;15105;56.514;21.002;2022-07-01T13:21:41;30.20;99.90
27697;DHT22;15105;56.514;21.002;2022-07-01T13:24:11;30.20;99.90
27697;DHT22;15105;56.514;21.002;2022-07-01T13:26:58;30.20;99.90
27697;DHT22;15105;56.514;21.002;2022-07-01T13:29:25;30.30;99.90
27697;DHT22;15105;56.514;21.002;2022-07-01T13:31:54;30.40;99.90
27697;DHT22;15105;56.514;21.002;2022-07-01T13:34:21;30.40;99.90
27697;DHT22;15105;56.514;21.002;2022-07-01T13:36:48;30.40;99.90
27697;DHT22;15105;56.514;21.002;2022-07-01T13:39:15;30.30;99.90
27697;DHT22;15105;56.514;21.002;2022-07-01T13:41:42;30.30;99.90
27697;DHT22;15105;56.514;21.002;2022-07-01T13:44:09;30.20;99.90
27697;DHT22;15105;56.514;21.002;2022-07-01T13:46:37;30.20;99.90
27697;DHT22;15105;56.514;21.002;2022-07-01T13:49:12;30.20;99.90
27697;DHT22;15105;56.514;21.002;2022-07-01T13:51:39;30.20;99.90
27697;DHT22;15105;56.514;21.002;2022-07-01T13:54:07;30.10;99.90
27697;DHT22;15105;56.514;21.002;2022-07-01T13:56:34;30.10;99.90
27697;DHT22;15105;56.514;21.002;2022-07-01T13:59:01;30.10;99.90
27697;DHT22;15105;56.514;21.002;2022-07-01T14:01:28;30.10;99.90
27697;DHT22;15105;56.514;21.002;2022-07-01T14:03:56;29.90;99.90
27697;DHT22;15105;56.514;21.002;2022-07-01T14:06:23;29.80;99.90
27697;DHT22;15105;56.514;21.002;2022-07-01T14:08:50;29.70;99.90
27697;DHT22;15105;56.514;21.002;2022-07-01T14:11:17;29.80;99.90
27697;DHT22;15105;56.514;21.002;2022-07-01T14:13:44;29.80;99.90
27697;DHT22;15105;56.514;21.002;2022-07-01T14:16:11;29.90;99.90
27697;DHT22;15105;56.514;21.002;2022-07-01T14:18:38;29.80;99.90
27697;DHT22;15105;56.514;21.002;2022-07-01T14:21:12;29.70;99.90
27697;DHT22;15105;56.514;21.002;2022-07-01T14:23:39;29.50;99.90
27697;DHT22;15105;56.514;21.002;2022-07-01T14:26:11;29.50;99.90
27697;DHT22;15105;56.514;21.002;2022-07-01T14:28:38;29.50;99.90
27697;DHT22;15105;56.514;21.002;2022-07-01T14:31:09;29.30;99.90
27697;DHT22;15105;56.514;21.002;2022-07-01T14:33:36;29.30;99.90
27697;DHT22;15105;56.514;21.002;2022-07-01T14:36:04;29.20;99.90
27697;DHT22;15105;56.514;21.002;2022-07-01T14:38:31;29.10;99.90
27697;DHT22;15105;56.514;21.002;2022-07-01T14:40:58;29.10;99.90
27697;DHT22;15105;56.514;21.002;2022-07-01T14:43:26;29.20;99.90
27697;DHT22;15105;56.514;21.002;2022-07-01T14:45:54;29.30;99.90
27697;DHT22;15105;56.514;21.002;2022-07-01T14:48:21;29.50;99.90
27697;DHT22;15105;56.514;21.002;2022-07-01T14:50:49;29.60;99.90
27697;DHT22;15105;56.514;21.002;2022-07-01T14:53:16;29.70;99.90
27697;DHT22;15105;56.514;21.002;2022-07-01T14:55:43;29.70;99.90
27697;DHT22;15105;56.514;21.002;2022-07-01T14:58:10;29.70;99.90
27697;DHT22;15105;56.514;21.002;2022-07-01T15:00:37;29.70;99.90
27697;DHT22;15105;56.514;21.002;2022-07-01T15:03:05;29.70;99.90
27697;DHT22;15105;56.514;21.002;2022-07-01T15:05:36;29.60;99.90
27697;DHT22;15105;56.514;21.002;2022-07-01T15:08:03;29.50;99.90
27697;DHT22;15105;56.514;21.002;2022-07-01T15:10:30;29.50;99.90
27697;DHT22;15105;56.514;21.002;2022-07-01T15:12:57;29.40;99.90
27697;DHT22;15105;56.514;21.002;2022-07-01T15:15:24;29.30;99.90
27697;DHT22;15105;56.514;21.002;2022-07-01T15:17:51;29.20;99.90
27697;DHT22;15105;56.514;21.002;2022-07-01T15:20:18;29.20;99.90
27697;DHT22;15105;56.514;21.002;2022-07-01T15:22:45;29.10;99.90
27697;DHT22;15105;56.514;21.002;2022-07-01T15:25:13;29.10;99.90
27697;DHT22;15105;56.514;21.002;2022-07-01T15:27:41;29.10;99.90
27697;DHT22;15105;56.514;21.002;2022-07-01T15:30:08;29.10;99.90
27697;DHT22;15105;56.514;21.002;2022-07-01T15:32:36;29.20;99.90
27697;DHT22;15105;56.514;21.002;2022-07-01T15:35:03;29.10;99.90
27697;DHT22;15105;56.514;21.002;2022-07-01T15:37:31;29.20;99.90
27697;DHT22;15105;56.514;21.002;2022-07-01T15:39:58;29.20;99.90
27697;DHT22;15105;56.514;21.002;2022-07-01T15:42:30;29.20;99.90
27697;DHT22;15105;56.514;21.002;2022-07-01T15:44:57;29.20;99.90
27697;DHT22;15105;56.514;21.002;2022-07-01T15:47:24;29.20;99.90
27697;DHT22;15105;56.514;21.002;2022-07-01T15:50:10;29.20;99.90
27697;DHT22;15105;56.514;21.002;2022-07-01T15:52:37;29.20;99.90
27697;DHT22;15105;56.514;21.002;2022-07-01T15:55:09;29.10;99.90
27697;DHT22;15105;56.514;21.002;2022-07-01T15:57:36;29.10;99.90
27697;DHT22;15105;56.514;21.002;2022-07-01T16:00:04;29.20;99.90
27697;DHT22;15105;56.514;21.002;2022-07-01T16:02:31;29.10;99.90
27697;DHT22;15105;56.514;21.002;2022-07-01T16:05:02;29.10;99.90
27697;DHT22;15105;56.514;21.002;2022-07-01T16:07:30;29.00;99.90
27697;DHT22;15105;56.514;21.002;2022-07-01T16:10:08;28.80;99.90
27697;DHT22;15105;56.514;21.002;2022-07-01T16:12:36;28.80;99.90
27697;DHT22;15105;56.514;21.002;2022-07-01T16:15:05;28.70;99.90
27697;DHT22;15105;56.514;21.002;2022-07-01T16:17:34;28.60;99.90
27697;DHT22;15105;56.514;21.002;2022-07-01T16:20:04;28.60;99.90
27697;DHT22;15105;56.514;21.002;2022-07-01T16:22:35;28.60;99.90
27697;DHT22;15105;56.514;21.002;2022-07-01T16:25:03;28.60;99.90
27697;DHT22;15105;56.514;21.002;2022-07-01T16:27:31;28.50;99.90
27697;DHT22;15105;56.514;21.002;2022-07-01T16:30:03;28.50;99.90
27697;DHT22;15105;56.514;21.002;2022-07-01T16:32:31;28.50;99.90
27697;DHT22;15105;56.514;21.002;2022-07-01T16:34:58;28.60;99.90
27697;DHT22;15105;56.514;21.002;2022-07-01T16:37:31;28.50;99.90
27697;DHT22;15105;56.514;21.002;2022-07-01T16:40:06;28.50;99.90
27697;DHT22;15105;56.514;21.002;2022-07-01T16:42:37;28.50;99.90
27697;DHT22;15105;56.514;21.002;2022-07-01T16:45:07;28.60;99.90
27697;DHT22;15105;56.514;21.002;2022-07-01T16:47:39;28.60;99.90
27697;DHT22;15105;56.514;21.002;2022-07-01T16:50:11;28.60;99.90
27697;DHT22;15105;56.514;21.002;2022-07-01T16:52:47;28.50;99.90
27697;DHT22;15105;56.514;21.002;2022-07-01T16:55:19;28.50;99.90
27697;DHT22;15105;56.514;21.002;2022-07-01T16:57:50;28.40;99.90
27697;DHT22;15105;56.514;21.002;2022-07-01T17:00:25;28.50;99.90
27697;DHT22;15105;56.514;21.002;2022-07-01T17:02:53;28.40;99.90
27697;DHT22;15105;56.514;21.002;2022-07-01T17:05:20;28.40;99.90
27697;DHT22;15105;56.514;21.002;2022-07-01T17:07:48;28.40;99.90
27697;DHT22;15105;56.514;21.002;2022-07-01T17:10:16;28.40;99.90
27697;DHT22;15105;56.514;21.002;2022-07-01T17:12:45;28.30;99.90
27697;DHT22;15105;56.514;21.002;2022-07-01T17:15:16;28.30;99.90
27697;DHT22;15105;56.514;21.002;2022-07-01T17:17:52;28.30;99.90
27697;DHT22;15105;56.514;21.002;2022-07-01T17:20:19;28.30;99.90
27697;DHT22;15105;56.514;21.002;2022-07-01T17:23:09;28.40;99.90
27697;DHT22;15105;56.514;21.002;2022-07-01T17:25:58;28.40;99.90
27697;DHT22;15105;56.514;21.002;2022-07-01T17:33:51;28.40;99.90
27697;DHT22;15105;56.514;21.002;2022-07-01T17:36:23;28.50;99.90
27697;DHT22;15105;56.514;21.002;2022-07-01T17:41:47;28.30;99.90
27697;DHT22;15105;56.514;21.002;2022-07-01T17:44:19;28.30;99.90
27697;DHT22;15105;56.514;21.002;2022-07-01T17:46:47;28.20;99.90
27697;DHT22;15105;56.514;21.002;2022-07-01T17:49:17;28.10;99.90
27697;DHT22;15105;56.514;21.002;2022-07-01T17:51:44;28.10;99.90
27697;DHT22;15105;56.514;21.002;2022-07-01T17:54:23;28.00;99.90
27697;DHT22;15105;56.514;21.002;2022-07-01T17:56:52;27.90;99.90
27697;DHT22;15105;56.514;21.002;2022-07-01T17:59:20;27.80;99.90
27697;DHT22;15105;56.514;21.002;2022-07-01T18:01:48;27.80;99.90
27697;DHT22;15105;56.514;21.002;2022-07-01T18:04:25;27.70;99.90
27697;DHT22;15105;56.514;21.002;2022-07-01T18:06:53;27.60;99.90
27697;DHT22;15105;56.514;21.002;2022-07-01T18:09:21;27.60;99.90
27697;DHT22;15105;56.514;21.002;2022-07-01T18:14:48;27.40;99.90
27697;DHT22;15105;56.514;21.002;2022-07-01T18:20:04;27.20;99.90
27697;DHT22;15105;56.514;21.002;2022-07-01T18:22:39;27.10;99.90
27697;DHT22;15105;56.514;21.002;2022-07-01T18:25:12;27.10;99.90
27697;DHT22;15105;56.514;21.002;2022-07-01T18:27:41;27.00;99.90
27697;DHT22;15105;56.514;21.002;2022-07-01T18:30:14;27.00;99.90
27697;DHT22;15105;56.514;21.002;2022-07-01T18:32:43;27.00;99.90
27697;DHT22;15105;56.514;21.002;2022-07-01T18:35:15;27.00;99.90
27697;DHT22;15105;56.514;21.002;2022-07-01T18:40:11;26.90;99.90
27697;DHT22;15105;56.514;21.002;2022-07-01T18:42:38;27.00;99.90
27697;DHT22;15105;56.514;21.002;2022-07-01T18:45:06;27.00;99.90
27697;DHT22;15105;56.514;21.002;2022-07-01T18:47:35;26.90;99.90
27697;DHT22;15105;56.514;21.002;2022-07-01T18:50:03;26.90;99.90
27697;DHT22;15105;56.514;21.002;2022-07-01T18:52:31;26.90;99.90
27697;DHT22;15105;56.514;21.002;2022-07-01T18:54:58;26.90;99.90
27697;DHT22;15105;56.514;21.002;2022-07-01T18:57:25;26.90;99.90
27697;DHT22;15105;56.514;21.002;2022-07-01T18:59:52;26.90;99.90
27697;DHT22;15105;56.514;21.002;2022-07-01T19:02:19;26.80;99.90
27697;DHT22;15105;56.514;21.002;2022-07-01T19:04:47;26.80;99.90
27697;DHT22;15105;56.514;21.002;2022-07-01T19:07:14;26.70;99.90
27697;DHT22;15105;56.514;21.002;2022-07-01T19:09:41;26.70;99.90
27697;DHT22;15105;56.514;21.002;2022-07-01T19:12:09;26.60;99.90
27697;DHT22;15105;56.514;21.002;2022-07-01T19:14:36;26.60;99.90
27697;DHT22;15105;56.514;21.002;2022-07-01T19:17:04;26.50;99.90
27697;DHT22;15105;56.514;21.002;2022-07-01T19:19:31;26.40;99.90
27697;DHT22;15105;56.514;21.002;2022-07-01T19:22:03;26.30;99.90
27697;DHT22;15105;56.514;21.002;2022-07-01T19:24:30;26.30;99.90
27697;DHT22;15105;56.514;21.002;2022-07-01T19:26:58;26.30;99.90
27697;DHT22;15105;56.514;21.002;2022-07-01T19:29:25;26.30;99.90
27697;DHT22;15105;56.514;21.002;2022-07-01T19:31:52;26.20;99.90
27697;DHT22;15105;56.514;21.002;2022-07-01T19:34:19;26.20;99.90
27697;DHT22;15105;56.514;21.002;2022-07-01T19:36:46;26.20;99.90
27697;DHT22;15105;56.514;21.002;2022-07-01T19:39:14;26.10;99.90
27697;DHT22;15105;56.514;21.002;2022-07-01T19:41:41;26.10;99.90
27697;DHT22;15105;56.514;21.002;2022-07-01T19:44:08;26.10;99.90
27697;DHT22;15105;56.514;21.002;2022-07-01T19:46:36;26.10;99.90
27697;DHT22;15105;56.514;21.002;2022-07-01T19:49:06;26.00;99.90
27697;DHT22;15105;56.514;21.002;2022-07-01T19:51:34;26.00;99.90
27697;DHT22;15105;56.514;21.002;2022-07-01T19:57:03;25.90;99.90
27697;DHT22;15105;56.514;21.002;2022-07-01T20:13:18;25.80;99.90
27697;DHT22;15105;56.514;21.002;2022-07-01T20:15:45;25.70;99.90
27697;DHT22;15105;56.514;21.002;2022-07-01T20:18:12;25.70;99.90
27697;DHT22;15105;56.514;21.002;2022-07-01T20:20:42;25.70;99.90
27697;DHT22;15105;56.514;21.002;2022-07-01T20:23:12;25.70;99.90
27697;DHT22;15105;56.514;21.002;2022-07-01T20:25:39;25.70;99.90
27697;DHT22;15105;56.514;21.002;2022-07-01T20:28:06;25.70;99.90
27697;DHT22;15105;56.514;21.002;2022-07-01T20:30:33;25.70;99.90
27697;DHT22;15105;56.514;21.002;2022-07-01T20:33:01;25.70;99.90
27697;DHT22;15105;56.514;21.002;2022-07-01T20:46:44;25.60;99.90
27697;DHT22;15105;56.514;21.002;2022-07-01T20:49:11;25.50;99.90
27697;DHT22;15105;56.514;21.002;2022-07-01T20:51:38;25.50;99.90
27697;DHT22;15105;56.514;21.002;2022-07-01T20:54:06;25.50;99.90
27697;DHT22;15105;56.514;21.002;2022-07-01T20:56:33;25.50;99.90
27697;DHT22;15105;56.514;21.002;2022-07-01T20:59:04;25.50;99.90
27697;DHT22;15105;56.514;21.002;2022-07-01T21:03:35;25.40;99.90
27697;DHT22;15105;56.514;21.002;2022-07-01T21:06:08;25.30;99.90
27697;DHT22;15105;56.514;21.002;2022-07-01T21:08:35;25.20;99.90
27697;DHT22;15105;56.514;21.002;2022-07-01T21:11:02;25.10;99.90
27697;DHT22;15105;56.514;21.002;2022-07-01T21:13:29;25.10;99.90
27697;DHT22;15105;56.514;21.002;2022-07-01T21:15:56;25.00;99.90
27697;DHT22;15105;56.514;21.002;2022-07-01T21:18:23;24.90;99.90
27697;DHT22;15105;56.514;21.002;2022-07-01T21:20:50;24.60;99.90
27697;DHT22;15105;56.514;21.002;2022-07-01T21:23:17;24.20;99.90
27697;DHT22;15105;56.514;21.002;2022-07-01T21:25:44;23.80;99.90
27697;DHT22;15105;56.514;21.002;2022-07-01T21:28:11;23.50;99.90
27697;DHT22;15105;56.514;21.002;2022-07-01T21:30:38;23.30;99.90
27697;DHT22;15105;56.514;21.002;2022-07-01T21:33:08;23.10;99.90
27697;DHT22;15105;56.514;21.002;2022-07-01T21:35:35;22.90;99.90
27697;DHT22;15105;56.514;21.002;2022-07-01T21:38:03;22.80;99.90
27697;DHT22;15105;56.514;21.002;2022-07-01T21:40:30;22.70;99.90
27697;DHT22;15105;56.514;21.002;2022-07-01T21:43:00;22.60;99.90
27697;DHT22;15105;56.514;21.002;2022-07-01T21:45:27;22.50;99.90
27697;DHT22;15105;56.514;21.002;2022-07-01T21:47:55;22.40;99.90
27697;DHT22;15105;56.514;21.002;2022-07-01T21:50:22;22.40;99.90
27697;DHT22;15105;56.514;21.002;2022-07-01T21:52:51;22.40;99.90
27697;DHT22;15105;56.514;21.002;2022-07-01T21:55:22;22.40;99.90
27697;DHT22;15105;56.514;21.002;2022-07-01T21:57:49;22.30;99.90
27697;DHT22;15105;56.514;21.002;2022-07-01T22:00:21;22.30;99.90
27697;DHT22;15105;56.514;21.002;2022-07-01T22:02:50;22.20;99.90
27697;DHT22;15105;56.514;21.002;2022-07-01T22:07:48;22.20;99.90
27697;DHT22;15105;56.514;21.002;2022-07-01T22:15:47;22.20;99.90
27697;DHT22;15105;56.514;21.002;2022-07-01T22:18:17;22.20;99.90